地図

経路データ

SID SEASON NUMBER BASIN SUBBASIN NAME ISO_TIME NATURE LAT LON WMO_WIND WMO_PRES WMO_AGENCY TRACK_TYPE DIST2LAND LANDFALL IFLAG USA_AGENCY USA_ATCF_ID USA_LAT USA_LON USA_RECORD USA_STATUS USA_WIND USA_PRES USA_SSHS USA_R34_NE USA_R34_SE USA_R34_SW USA_R34_NW USA_R50_NE USA_R50_SE USA_R50_SW USA_R50_NW USA_R64_NE USA_R64_SE USA_R64_SW USA_R64_NW USA_POCI USA_ROCI USA_RMW USA_EYE TOKYO_LAT TOKYO_LON TOKYO_GRADE TOKYO_WIND TOKYO_PRES TOKYO_R50_DIR TOKYO_R50_LONG TOKYO_R50_SHORT TOKYO_R30_DIR TOKYO_R30_LONG TOKYO_R30_SHORT TOKYO_LAND CMA_LAT CMA_LON CMA_CAT CMA_WIND CMA_PRES HKO_LAT HKO_LON HKO_CAT HKO_WIND HKO_PRES NEWDELHI_LAT NEWDELHI_LON NEWDELHI_GRADE NEWDELHI_WIND NEWDELHI_PRES NEWDELHI_CI NEWDELHI_DP NEWDELHI_POCI REUNION_LAT REUNION_LON REUNION_TYPE REUNION_WIND REUNION_PRES REUNION_TNUM REUNION_CI REUNION_RMW REUNION_R34_NE REUNION_R34_SE REUNION_R34_SW REUNION_R34_NW REUNION_R50_NE REUNION_R50_SE REUNION_R50_SW REUNION_R50_NW REUNION_R64_NE REUNION_R64_SE REUNION_R64_SW REUNION_R64_NW BOM_LAT BOM_LON BOM_TYPE BOM_WIND BOM_PRES BOM_TNUM BOM_CI BOM_RMW BOM_R34_NE BOM_R34_SE BOM_R34_SW BOM_R34_NW BOM_R50_NE BOM_R50_SE BOM_R50_SW BOM_R50_NW BOM_R64_NE BOM_R64_SE BOM_R64_SW BOM_R64_NW BOM_ROCI BOM_POCI BOM_EYE BOM_POS_METHOD BOM_PRES_METHOD NADI_LAT NADI_LON NADI_CAT NADI_WIND NADI_PRES WELLINGTON_LAT WELLINGTON_LON WELLINGTON_WIND WELLINGTON_PRES DS824_LAT DS824_LON DS824_STAGE DS824_WIND DS824_PRES TD9636_LAT TD9636_LON TD9636_STAGE TD9636_WIND TD9636_PRES TD9635_LAT TD9635_LON TD9635_WIND TD9635_PRES TD9635_ROCI NEUMANN_LAT NEUMANN_LON NEUMANN_CLASS NEUMANN_WIND NEUMANN_PRES MLC_LAT MLC_LON MLC_CLASS MLC_WIND MLC_PRES USA_GUST BOM_GUST BOM_GUST_PER REUNION_GUST REUNION_GUST_PER USA_SEAHGT USA_SEARAD_NE USA_SEARAD_SE USA_SEARAD_SW USA_SEARAD_NW STORM_SPEED STORM_DIR
1970356S14064 1971 158 SI MM DOMINIQUE:HILARY 1970-12-21 12:00:00 TS -14.2000 64.0000 reunion spur-split 940 940 _____O______O_ -1 -14.2000 64.0000 99 9.90000 -14.2000 64.0000 TC 80 10 1
1970356S14064 1971 158 SI MM DOMINIQUE:HILARY 1970-12-21 15:00:00 TS -13.7124 64.0027 spur-split 980 980 _____P______P_ -1 -13.7025 64.0449 99 -13.7025 64.0449 TC 77 9 12
1970356S14064 1971 158 SI MM DOMINIQUE:HILARY 1970-12-21 18:00:00 TS -13.3000 64.2000 reunion spur-split 1028 1028 _____O______O_ -1 -13.3000 64.2000 99 9.90000 -13.3000 64.2000 TC 75 8 39
1970356S14064 1971 158 SI MM DOMINIQUE:HILARY 1970-12-21 21:00:00 TS -13.0675 64.5401 spur-split 1066 1066 _____P______P_ -1 -13.0675 64.5401 99 -13.0675 64.5401 TC 72 8 69
1970356S14064 1971 158 SI MM DOMINIQUE:HILARY 1970-12-22 00:00:00 TS -13.0000 65.0000 reunion spur-split 1111 1111 _____O______O_ -1 -13.0000 65.0000 99 9.90000 -13.0000 65.0000 TC 70 9 89
1970356S14064 1971 158 SI MM DOMINIQUE:HILARY 1970-12-22 03:00:00 TS -13.0549 65.4774 spur-split 1141 1141 _____P______P_ -1 -13.0549 65.4774 99 -13.0549 65.4774 TC 67 10 102
1970356S14064 1971 158 SI MM DOMINIQUE:HILARY 1970-12-22 06:00:00 TS -13.2000 66.0000 reunion spur-split 1173 1173 _____O______O_ -1 -13.2000 66.0000 4 9.90000 -13.2000 66.0000 TC 65 11 105
1970356S14064 1971 158 SI MM DOMINIQUE:HILARY 1970-12-22 09:00:00 TS -13.3350 66.5500 spur-split 1215 1207 _____P______P_ -1 -13.3350 66.5500 4 -13.3350 66.5500 TC 62 11 106
1970356S14064 1971 158 SI MM DOMINIQUE:HILARY 1970-12-22 12:00:00 TS -13.5000 67.1000 reunion spur-split 1243 1243 _____O______O_ -1 -13.5000 67.1000 99 9.90000 -13.5000 67.1000 TC 60 11 110
1970356S14064 1971 158 SI MM DOMINIQUE:HILARY 1970-12-22 15:00:00 TS -13.7074 67.6075 spur-split 1273 1273 _____P______P_ -1 -13.7074 67.6075 99 -13.7074 67.6075 TC 60 11 112
1970356S14064 1971 158 SI MM DOMINIQUE:HILARY 1970-12-22 18:00:00 TS -13.9000 68.1000 reunion spur-split 1305 1305 _____O______O_ -1 -13.9000 68.1000 99 9.90000 -13.9000 68.1000 TC 60 10 106
1970356S14064 1971 158 SI MM DOMINIQUE:HILARY 1970-12-22 21:00:00 TS -13.9849 68.6078 spur-split 1344 1344 _____P______P_ -1 -13.9849 68.6078 99 -13.9849 68.6078 TC 57 10 102
1970356S14064 1971 158 SI MM DOMINIQUE:HILARY 1970-12-23 00:00:00 TS -14.1000 69.1000 reunion spur-split 1384 1384 _____O______O_ -1 -14.1000 69.1000 99 9.90000 -14.1000 69.1000 TC 55 10 114
1970356S14064 1971 158 SI MM DOMINIQUE:HILARY 1970-12-23 03:00:00 TS -14.3924 69.5648 spur-split 1415 1415 _____P______P_ -1 -14.3924 69.5648 99 -14.3924 69.5648 TC 52 11 125
1970356S14064 1971 158 SI MM DOMINIQUE:HILARY 1970-12-23 06:00:00 TS -14.7000 70.0000 reunion spur-split 1436 1436 _____O______O_ -1 -14.7000 70.0000 3 9.90000 -14.7000 70.0000 TC 50 10 121
1970356S14064 1971 158 SI MM DOMINIQUE:HILARY 1970-12-23 09:00:00 TS -14.8875 70.4301 spur-split 1465 1465 _____P______P_ -1 -14.8875 70.4301 3 -14.8875 70.4301 TC 47 8 111
1970356S14064 1971 158 SI MM DOMINIQUE:HILARY 1970-12-23 12:00:00 TS -15.0000 70.8000 reunion spur-split 1499 1499 _____O______O_ -1 -15.0000 70.8000 99 9.90000 -15.0000 70.8000 TC 45 6 105
1970356S14064 1971 158 SI MM DOMINIQUE:HILARY 1970-12-23 15:00:00 TS -15.0498 71.0502 spur-split 1528 1523 _____P______P_ -1 -15.0498 71.0502 99 -15.0498 71.0502 TC 45 5 102
1970356S14064 1971 158 SI MM DOMINIQUE:HILARY 1970-12-23 18:00:00 TS -15.1000 71.3000 reunion spur-split 1543 1543 _____O______O_ -1 -15.1000 71.3000 99 9.90000 -15.1000 71.3000 TC 45 6 105
1970356S14064 1971 158 SI MM DOMINIQUE:HILARY 1970-12-23 21:00:00 TS -15.2125 71.6701 spur-split 1578 1578 _____P______P_ -1 -15.2253 71.6622 99 -15.2253 71.6622 TC 42 8 111
1970356S14064 1971 158 SI MM DOMINIQUE:HILARY 1970-12-24 00:00:00 TS -15.4000 72.1000 reunion spur-split 1609 1609 _____O______O_ -1 -15.4000 72.1000 99 9.90000 -15.4000 72.1000 TC 40 11 117
1970356S14064 1971 158 SI MM DOMINIQUE:HILARY 1970-12-24 03:00:00 TS -15.6927 72.6395 spur-split 1646 ______________ -1 99 TC 12 119

IBTrACS Databaseについて

本データベースは、米国NOAAが公開する1842年以降の世界の熱帯低気圧のベストトラックデータアーカイブInternational Best Track Archive for Climate Stewardship (IBTrACS)を、ウェブで閲覧しやすい形式に変換したものです。

最終更新日:2021-10-27